Chain of Ponds Twp, Maine
Current Conditions -  °F | °C
As of 8:52 AM on Friday 28 Nov 2014 (Local Time) from KBML Reporting Station
Light Snow Light Snow  
Wind Chill: 20°   Ceiling: 3200
Heat Index: 20°   Visibility: 3mi
Dew Point: 17°   Wind: 0mph
Humidity: 89%   Direction: NA
Pressure: 30"   Gusts: NA
Location:  45.2635°N, 70.5567°W
Report Text: KBML 281352Z AUTO 00000KT 3SM -SN BR BKN032 BKN049 OVC060 M07/M08 A3000 RMK AO2 SNE32B34 SLP177 P0000 T10671083
Loading
Personal Weather Stations






























Interactive Weather Map New forecast layout! Learn more

10-Day Weather Forecast

Advertisements
Track Severe Weather on mobile